sensor_id;sensor_type;location;lat;lon;timestamp;P1;durP1;ratioP1;P2;durP2;ratioP2
84189;SDS011;74321;53.406;8.146;2023-12-20T09:56:15;10.20;;;1.08;;
84189;SDS011;74321;53.406;8.146;2023-12-20T10:01:17;5.97;;;1.20;;
84189;SDS011;74321;53.406;8.146;2023-12-20T10:06:20;6.80;;;1.00;;
84189;SDS011;74321;53.406;8.146;2023-12-20T10:11:23;3.75;;;0.50;;
84189;SDS011;74321;53.406;8.146;2023-12-20T10:16:25;2.38;;;0.55;;
84189;SDS011;74321;53.406;8.146;2023-12-20T10:21:27;2.17;;;1.15;;
84189;SDS011;74321;53.406;8.146;2023-12-20T10:26:29;7.78;;;0.98;;
84189;SDS011;74321;53.406;8.146;2023-12-20T10:31:33;2.95;;;0.75;;
84189;SDS011;74321;53.406;8.146;2023-12-20T10:36:36;8.60;;;0.88;;
84189;SDS011;74321;53.406;8.146;2023-12-20T10:41:38;8.05;;;0.85;;
84189;SDS011;74321;53.406;8.146;2023-12-20T10:46:43;4.00;;;0.90;;
84189;SDS011;74321;53.406;8.146;2023-12-20T10:51:52;9.60;;;0.90;;
84189;SDS011;74321;53.406;8.146;2023-12-20T10:56:56;6.55;;;0.80;;
84189;SDS011;74321;53.406;8.146;2023-12-20T11:01:59;13.13;;;1.38;;
84189;SDS011;74321;53.406;8.146;2023-12-20T11:12:28;7.60;;;1.10;;
84189;SDS011;74321;53.406;8.146;2023-12-20T11:17:39;9.05;;;0.98;;
84189;SDS011;74321;53.406;8.146;2023-12-20T11:22:51;8.90;;;1.20;;
84189;SDS011;74321;53.406;8.146;2023-12-20T11:28:08;9.27;;;0.98;;
84189;SDS011;74321;53.406;8.146;2023-12-20T11:33:12;5.38;;;1.00;;
84189;SDS011;74321;53.406;8.146;2023-12-20T11:38:16;8.18;;;1.10;;
84189;SDS011;74321;53.406;8.146;2023-12-20T11:43:37;8.23;;;1.25;;
84189;SDS011;74321;53.406;8.146;2023-12-20T11:48:41;7.03;;;1.30;;
84189;SDS011;74321;53.406;8.146;2023-12-20T11:53:50;6.28;;;1.33;;
84189;SDS011;74321;53.406;8.146;2023-12-20T11:58:57;7.55;;;1.00;;
84189;SDS011;74321;53.406;8.146;2023-12-20T12:04:16;10.90;;;1.55;;
84189;SDS011;74321;53.406;8.146;2023-12-20T12:09:21;7.25;;;1.23;;
84189;SDS011;74321;53.406;8.146;2023-12-20T12:14:23;10.43;;;1.40;;
84189;SDS011;74321;53.406;8.146;2023-12-20T12:19:26;11.70;;;1.48;;
84189;SDS011;74321;53.406;8.146;2023-12-20T12:24:28;5.70;;;1.52;;
84189;SDS011;74321;53.406;8.146;2023-12-20T12:29:30;6.43;;;1.10;;
84189;SDS011;74321;53.406;8.146;2023-12-20T12:34:32;10.13;;;1.65;;
84189;SDS011;74321;53.406;8.146;2023-12-20T12:39:38;12.38;;;1.95;;
84189;SDS011;74321;53.406;8.146;2023-12-20T12:44:42;8.27;;;1.38;;
84189;SDS011;74321;53.406;8.146;2023-12-20T12:49:44;9.07;;;1.73;;
84189;SDS011;74321;53.406;8.146;2023-12-20T12:54:46;10.85;;;2.08;;
84189;SDS011;74321;53.406;8.146;2023-12-20T12:59:48;10.77;;;1.90;;
84189;SDS011;74321;53.406;8.146;2023-12-20T13:04:50;10.38;;;1.80;;
84189;SDS011;74321;53.406;8.146;2023-12-20T13:09:53;9.43;;;1.58;;
84189;SDS011;74321;53.406;8.146;2023-12-20T13:14:55;9.75;;;2.00;;
84189;SDS011;74321;53.406;8.146;2023-12-20T13:19:57;13.88;;;2.90;;
84189;SDS011;74321;53.406;8.146;2023-12-20T13:24:59;13.02;;;2.60;;
84189;SDS011;74321;53.406;8.146;2023-12-20T13:30:01;16.08;;;2.83;;
84189;SDS011;74321;53.406;8.146;2023-12-20T13:35:05;24.40;;;2.88;;
84189;SDS011;74321;53.406;8.146;2023-12-20T13:40:07;18.00;;;2.40;;
84189;SDS011;74321;53.406;8.146;2023-12-20T13:45:10;15.35;;;2.63;;
84189;SDS011;74321;53.406;8.146;2023-12-20T13:50:12;13.45;;;2.03;;
84189;SDS011;74321;53.406;8.146;2023-12-20T13:55:14;25.98;;;3.75;;
84189;SDS011;74321;53.406;8.146;2023-12-20T14:00:16;15.68;;;2.35;;
84189;SDS011;74321;53.406;8.146;2023-12-20T14:05:18;16.80;;;2.25;;
84189;SDS011;74321;53.406;8.146;2023-12-20T14:10:22;14.93;;;2.80;;
84189;SDS011;74321;53.406;8.146;2023-12-20T14:15:24;14.18;;;3.40;;
84189;SDS011;74321;53.406;8.146;2023-12-20T14:20:27;14.50;;;2.40;;
84189;SDS011;74321;53.406;8.146;2023-12-20T14:25:31;14.13;;;2.22;;
84189;SDS011;74321;53.406;8.146;2023-12-20T14:30:46;11.43;;;2.13;;
84189;SDS011;74321;53.406;8.146;2023-12-20T14:35:48;12.48;;;1.88;;
84189;SDS011;74321;53.406;8.146;2023-12-20T14:40:51;18.45;;;2.20;;
84189;SDS011;74321;53.406;8.146;2023-12-20T14:45:53;14.43;;;2.35;;
84189;SDS011;74321;53.406;8.146;2023-12-20T14:50:55;6.97;;;1.67;;
84189;SDS011;74321;53.406;8.146;2023-12-20T14:56:00;10.65;;;2.60;;
84189;SDS011;74321;53.406;8.146;2023-12-20T15:01:03;16.92;;;3.72;;
84189;SDS011;74321;53.406;8.146;2023-12-20T15:06:10;15.50;;;3.20;;
84189;SDS011;74321;53.406;8.146;2023-12-20T15:11:13;16.75;;;2.13;;
84189;SDS011;74321;53.406;8.146;2023-12-20T15:16:16;8.68;;;1.83;;
84189;SDS011;74321;53.406;8.146;2023-12-20T15:21:18;11.38;;;2.55;;
84189;SDS011;74321;53.406;8.146;2023-12-20T15:26:20;14.30;;;3.03;;
84189;SDS011;74321;53.406;8.146;2023-12-20T15:31:22;16.80;;;3.15;;
84189;SDS011;74321;53.406;8.146;2023-12-20T15:36:28;12.20;;;3.05;;
84189;SDS011;74321;53.406;8.146;2023-12-20T15:41:30;10.30;;;2.28;;
84189;SDS011;74321;53.406;8.146;2023-12-20T15:46:32;18.50;;;3.63;;
84189;SDS011;74321;53.406;8.146;2023-12-20T15:51:35;18.63;;;3.92;;
84189;SDS011;74321;53.406;8.146;2023-12-20T15:56:38;11.50;;;3.10;;
84189;SDS011;74321;53.406;8.146;2023-12-20T16:01:42;14.25;;;3.30;;
84189;SDS011;74321;53.406;8.146;2023-12-20T16:06:55;16.92;;;3.58;;
84189;SDS011;74321;53.406;8.146;2023-12-20T16:11:57;9.63;;;2.47;;
84189;SDS011;74321;53.406;8.146;2023-12-20T16:16:59;14.30;;;3.67;;
84189;SDS011;74321;53.406;8.146;2023-12-20T16:22:01;12.50;;;2.65;;
84189;SDS011;74321;53.406;8.146;2023-12-20T16:27:07;14.73;;;2.78;;
84189;SDS011;74321;53.406;8.146;2023-12-20T16:32:09;8.50;;;1.40;;
84189;SDS011;74321;53.406;8.146;2023-12-20T16:37:11;8.00;;;2.00;;
84189;SDS011;74321;53.406;8.146;2023-12-20T16:42:13;7.97;;;1.70;;
84189;SDS011;74321;53.406;8.146;2023-12-20T16:47:15;7.47;;;1.50;;
84189;SDS011;74321;53.406;8.146;2023-12-20T16:52:17;7.32;;;1.40;;
84189;SDS011;74321;53.406;8.146;2023-12-20T16:57:19;11.77;;;2.15;;
84189;SDS011;74321;53.406;8.146;2023-12-20T17:02:22;5.78;;;1.17;;
84189;SDS011;74321;53.406;8.146;2023-12-20T17:07:24;4.15;;;1.33;;
84189;SDS011;74321;53.406;8.146;2023-12-20T17:12:27;7.97;;;1.98;;
84189;SDS011;74321;53.406;8.146;2023-12-20T17:17:29;9.98;;;1.67;;
84189;SDS011;74321;53.406;8.146;2023-12-20T17:22:31;6.25;;;1.25;;
84189;SDS011;74321;53.406;8.146;2023-12-20T17:27:34;8.02;;;1.58;;
84189;SDS011;74321;53.406;8.146;2023-12-20T17:32:36;6.15;;;1.08;;
84189;SDS011;74321;53.406;8.146;2023-12-20T17:37:39;5.97;;;1.40;;
84189;SDS011;74321;53.406;8.146;2023-12-20T17:42:45;9.93;;;1.85;;
84189;SDS011;74321;53.406;8.146;2023-12-20T17:47:50;8.10;;;1.52;;
84189;SDS011;74321;53.406;8.146;2023-12-20T17:52:52;9.68;;;1.80;;
84189;SDS011;74321;53.406;8.146;2023-12-20T17:57:56;11.85;;;3.00;;
84189;SDS011;74321;53.406;8.146;2023-12-20T18:03:00;8.63;;;1.88;;
84189;SDS011;74321;53.406;8.146;2023-12-20T18:08:02;8.23;;;2.00;;
84189;SDS011;74321;53.406;8.146;2023-12-20T18:13:04;6.88;;;1.90;;
84189;SDS011;74321;53.406;8.146;2023-12-20T18:18:07;7.13;;;1.90;;
84189;SDS011;74321;53.406;8.146;2023-12-20T18:23:13;4.43;;;2.40;;
84189;SDS011;74321;53.406;8.146;2023-12-20T18:28:15;5.45;;;1.90;;
84189;SDS011;74321;53.406;8.146;2023-12-20T18:33:19;4.07;;;2.08;;
84189;SDS011;74321;53.406;8.146;2023-12-20T18:38:21;10.68;;;2.88;;
84189;SDS011;74321;53.406;8.146;2023-12-20T18:43:29;8.55;;;2.58;;
84189;SDS011;74321;53.406;8.146;2023-12-20T18:48:31;14.27;;;2.55;;
84189;SDS011;74321;53.406;8.146;2023-12-20T18:53:35;13.02;;;3.47;;
84189;SDS011;74321;53.406;8.146;2023-12-20T18:58:40;40.08;;;5.75;;
84189;SDS011;74321;53.406;8.146;2023-12-20T19:08:44;9.68;;;3.15;;
84189;SDS011;74321;53.406;8.146;2023-12-20T19:13:51;7.15;;;2.85;;
84189;SDS011;74321;53.406;8.146;2023-12-20T19:18:53;25.20;;;3.45;;
84189;SDS011;74321;53.406;8.146;2023-12-20T19:23:56;10.00;;;3.00;;
84189;SDS011;74321;53.406;8.146;2023-12-20T19:29:03;11.13;;;4.20;;
84189;SDS011;74321;53.406;8.146;2023-12-20T19:34:17;9.88;;;3.95;;
84189;SDS011;74321;53.406;8.146;2023-12-20T19:39:23;12.63;;;4.07;;
84189;SDS011;74321;53.406;8.146;2023-12-20T19:44:25;11.02;;;4.00;;
84189;SDS011;74321;53.406;8.146;2023-12-20T19:49:27;12.73;;;4.20;;
84189;SDS011;74321;53.406;8.146;2023-12-20T19:54:30;16.17;;;4.55;;
84189;SDS011;74321;53.406;8.146;2023-12-20T19:59:32;10.25;;;4.07;;
84189;SDS011;74321;53.406;8.146;2023-12-20T20:04:34;12.18;;;4.55;;
84189;SDS011;74321;53.406;8.146;2023-12-20T20:09:37;14.40;;;4.18;;
84189;SDS011;74321;53.406;8.146;2023-12-20T20:14:39;6.13;;;2.50;;
84189;SDS011;74321;53.406;8.146;2023-12-20T20:19:41;11.07;;;3.83;;
84189;SDS011;74321;53.406;8.146;2023-12-20T20:24:44;10.02;;;4.43;;
84189;SDS011;74321;53.406;8.146;2023-12-20T20:29:47;7.75;;;3.15;;
84189;SDS011;74321;53.406;8.146;2023-12-20T20:34:49;6.47;;;2.88;;
84189;SDS011;74321;53.406;8.146;2023-12-20T20:39:52;5.57;;;2.88;;
84189;SDS011;74321;53.406;8.146;2023-12-20T20:44:54;6.30;;;2.55;;
84189;SDS011;74321;53.406;8.146;2023-12-20T20:49:56;7.47;;;2.95;;
84189;SDS011;74321;53.406;8.146;2023-12-20T20:54:58;4.35;;;1.90;;
84189;SDS011;74321;53.406;8.146;2023-12-20T21:00:01;6.53;;;2.45;;
84189;SDS011;74321;53.406;8.146;2023-12-20T21:05:03;5.13;;;1.88;;
84189;SDS011;74321;53.406;8.146;2023-12-20T21:10:06;4.00;;;1.85;;
84189;SDS011;74321;53.406;8.146;2023-12-20T21:15:08;7.05;;;2.83;;
84189;SDS011;74321;53.406;8.146;2023-12-20T21:20:11;5.07;;;2.20;;
84189;SDS011;74321;53.406;8.146;2023-12-20T21:25:14;4.47;;;1.67;;
84189;SDS011;74321;53.406;8.146;2023-12-20T21:30:16;4.32;;;2.25;;
84189;SDS011;74321;53.406;8.146;2023-12-20T21:35:18;6.70;;;2.88;;
84189;SDS011;74321;53.406;8.146;2023-12-20T21:40:20;5.28;;;2.35;;
84189;SDS011;74321;53.406;8.146;2023-12-20T21:45:23;10.18;;;2.85;;
84189;SDS011;74321;53.406;8.146;2023-12-20T21:50:28;15.32;;;2.95;;
84189;SDS011;74321;53.406;8.146;2023-12-20T21:55:48;14.18;;;2.90;;
84189;SDS011;74321;53.406;8.146;2023-12-20T22:00:50;14.70;;;3.05;;
84189;SDS011;74321;53.406;8.146;2023-12-20T22:06:27;17.00;;;3.20;;
